Terminal Aerodrome Forecast
Issued by NWS Lake Charles, LA

Home | Current Version | Previous Version | Text Only | Print | Product List | Glossary On
Versions: 1 2 3 4 5 6 7 8 9 10 11 12 13
000
FTUS44 KLCH 010500
TAFARA
TAF
KARA 010526Z 0106/0206 10008KT P6SM BKN100 OVC110
     FM011000 15006KT P6SM -RA FEW010 BKN025 OVC035
      TEMPO 0112/0116 4SM -RA BR OVC008
     FM011600 20012KT P6SM -RA SCT009 OVC023
     FM020000 24008KT P6SM -RA OVC015
     FM020300 34012KT P6SM -RA OVC008=

USA.gov is the U.S. government's official web portal to all federal, state and local government web resources and services.